createdAt,value
2023-05-11T00:01:59.573Z,11.11
2023-05-11T00:04:26.225Z,11.02
2023-05-11T00:06:52.895Z,10.92
2023-05-11T00:09:19.350Z,10.95
2023-05-11T00:11:45.829Z,10.91
2023-05-11T00:14:12.209Z,10.88
2023-05-11T00:16:38.640Z,10.82
2023-05-11T00:19:05.442Z,10.78
2023-05-11T00:21:32.277Z,10.78
2023-05-11T00:23:59.810Z,10.76
2023-05-11T00:26:26.748Z,10.65
2023-05-11T00:28:53.263Z,10.64
2023-05-11T00:31:20.380Z,10.60
2023-05-11T00:33:46.824Z,10.66
2023-05-11T00:36:13.250Z,10.64
2023-05-11T00:38:42.628Z,10.60
2023-05-11T00:41:10.055Z,10.56
2023-05-11T00:43:36.528Z,10.52
2023-05-11T00:46:03.733Z,10.51
2023-05-11T00:48:30.757Z,10.47
2023-05-11T00:50:59.315Z,10.42
2023-05-11T00:53:25.791Z,10.36
2023-05-11T00:55:54.011Z,10.35
2023-05-11T00:58:20.636Z,10.26
2023-05-11T01:00:50.011Z,10.23
2023-05-11T01:03:17.020Z,10.21
2023-05-11T01:06:01.505Z,10.19
2023-05-11T01:08:40.572Z,10.18
2023-05-11T01:11:16.621Z,10.17
2023-05-11T01:13:52.358Z,10.13
2023-05-11T01:16:21.377Z,10.06
2023-05-11T01:19:04.262Z,10.03
2023-05-11T01:21:35.400Z,9.99
2023-05-11T01:24:27.096Z,10.05
2023-05-11T01:27:08.977Z,10.07
2023-05-11T01:30:05.155Z,10.01
2023-05-11T01:32:34.427Z,10.01
2023-05-11T01:35:11.303Z,9.95
2023-05-11T01:37:41.737Z,9.95
2023-05-11T01:40:16.776Z,9.87
2023-05-11T01:43:05.211Z,9.79
2023-05-11T01:45:33.782Z,9.80
2023-05-11T01:48:03.521Z,9.76
2023-05-11T01:50:31.886Z,9.73
2023-05-11T01:53:01.040Z,9.78
2023-05-11T01:55:28.391Z,9.92
2023-05-11T01:57:55.869Z,9.91
2023-05-11T02:00:22.622Z,9.96
2023-05-11T02:02:49.673Z,10.07
2023-05-11T02:05:21.268Z,9.99
2023-05-11T02:07:50.545Z,9.91
2023-05-11T02:10:19.055Z,9.88
2023-05-11T02:12:46.796Z,9.82
2023-05-11T02:15:13.799Z,9.84
2023-05-11T02:17:40.911Z,9.84
2023-05-11T02:20:08.679Z,9.83
2023-05-11T02:22:36.003Z,9.77
2023-05-11T02:25:04.023Z,9.70
2023-05-11T02:27:30.561Z,9.69
2023-05-11T02:29:57.872Z,9.69
2023-05-11T02:32:25.658Z,9.62
2023-05-11T02:35:01.941Z,9.51
2023-05-11T02:37:30.411Z,9.44
2023-05-11T02:40:03.697Z,9.49
2023-05-11T02:42:36.628Z,9.39
2023-05-11T02:45:09.369Z,9.38
2023-05-11T02:47:42.793Z,9.40
2023-05-11T02:50:09.975Z,9.31
2023-05-11T02:52:44.978Z,9.34
2023-05-11T02:55:13.597Z,9.32
2023-05-11T02:57:40.148Z,9.30
2023-05-11T03:00:08.322Z,9.27
2023-05-11T03:02:35.161Z,9.31
2023-05-11T03:05:01.716Z,9.32
2023-05-11T03:07:28.209Z,9.30
2023-05-11T03:09:55.073Z,9.29
2023-05-11T03:12:21.614Z,9.24
2023-05-11T03:14:48.271Z,9.27
2023-05-11T03:17:15.939Z,9.26
2023-05-11T03:19:42.468Z,9.24
2023-05-11T03:22:10.117Z,9.27
2023-05-11T03:24:36.547Z,9.20
2023-05-11T03:27:04.385Z,9.21
2023-05-11T03:29:31.790Z,9.26
2023-05-11T03:31:58.375Z,9.25
2023-05-11T03:34:24.863Z,9.31
2023-05-11T03:36:52.694Z,9.51
2023-05-11T03:39:20.225Z,9.62
2023-05-11T03:41:49.767Z,9.73
2023-05-11T03:44:19.913Z,10.06
2023-05-11T03:46:47.869Z,10.35
2023-05-11T03:49:15.673Z,10.47
2023-05-11T03:51:42.540Z,10.61
2023-05-11T03:54:08.975Z,10.73
2023-05-11T03:56:36.674Z,10.86
2023-05-11T03:59:04.182Z,10.96
2023-05-11T04:01:30.902Z,11.15
2023-05-11T04:03:57.712Z,11.26
2023-05-11T04:06:24.258Z,11.23
2023-05-11T04:08:50.777Z,11.26
2023-05-11T04:11:17.273Z,11.22
2023-05-11T04:13:43.640Z,11.24
2023-05-11T04:16:10.157Z,11.34
2023-05-11T04:18:36.675Z,11.38
2023-05-11T04:21:03.147Z,11.43
2023-05-11T04:23:30.552Z,11.50
2023-05-11T04:25:57.525Z,11.55
2023-05-11T04:28:27.534Z,11.63
2023-05-11T04:30:56.366Z,11.79
2023-05-11T04:33:23.495Z,11.79
2023-05-11T04:35:51.529Z,11.89
2023-05-11T04:38:18.978Z,11.88
2023-05-11T04:40:45.647Z,11.95
2023-05-11T04:43:12.013Z,12.02
2023-05-11T04:45:38.394Z,12.17
2023-05-11T04:48:05.294Z,12.38
2023-05-11T04:50:32.246Z,12.54
2023-05-11T04:52:58.682Z,12.66
2023-05-11T04:55:24.998Z,12.79
2023-05-11T04:57:51.513Z,12.92
2023-05-11T05:00:18.792Z,13.02
2023-05-11T05:02:45.491Z,13.10
2023-05-11T05:05:12.000Z,13.29
2023-05-11T05:07:38.620Z,13.31
2023-05-11T05:10:08.799Z,13.47
2023-05-11T05:12:36.808Z,13.61
2023-05-11T05:15:03.898Z,13.79
2023-05-11T05:17:30.301Z,14.11
2023-05-11T05:19:57.968Z,14.36
2023-05-11T05:22:25.280Z,14.39
2023-05-11T05:24:51.802Z,14.60
2023-05-11T05:27:18.252Z,14.73
2023-05-11T05:29:44.710Z,14.76
2023-05-11T05:32:11.237Z,14.86
2023-05-11T05:34:37.673Z,14.85
2023-05-11T05:37:04.146Z,14.99
2023-05-11T05:39:30.733Z,15.16
2023-05-11T05:41:58.102Z,15.10
2023-05-11T05:44:24.492Z,15.30
2023-05-11T05:46:50.952Z,15.47
2023-05-11T05:49:17.344Z,15.39
2023-05-11T05:51:44.031Z,15.54
2023-05-11T05:54:11.286Z,15.79
2023-05-11T05:56:37.779Z,15.93
2023-05-11T05:59:04.102Z,16.37
2023-05-11T06:01:30.543Z,16.51
2023-05-11T06:03:57.101Z,16.66
2023-05-11T06:06:23.609Z,16.76
2023-05-11T06:08:49.987Z,17.03
2023-05-11T06:11:16.424Z,17.45
2023-05-11T06:13:43.844Z,17.42
2023-05-11T06:16:10.769Z,17.25
2023-05-11T06:18:37.165Z,17.56
2023-05-11T06:21:03.575Z,17.91
2023-05-11T06:23:29.987Z,18.32
2023-05-11T06:25:56.438Z,18.55
2023-05-11T06:28:26.033Z,18.85
2023-05-11T06:30:52.705Z,18.61
2023-05-11T06:33:19.138Z,18.57
2023-05-11T06:35:47.588Z,18.68
2023-05-11T06:38:14.001Z,19.34
2023-05-11T06:40:40.816Z,19.09
2023-05-11T06:43:07.269Z,19.25
2023-05-11T06:45:33.949Z,19.31
2023-05-11T06:48:00.828Z,18.93
2023-05-11T06:50:27.795Z,19.01
2023-05-11T06:52:54.560Z,19.65
2023-05-11T06:55:21.118Z,19.43
2023-05-11T06:57:47.614Z,19.56
2023-05-11T07:00:14.598Z,19.65
2023-05-11T07:02:41.323Z,19.75
2023-05-11T07:05:08.166Z,19.54
2023-05-11T07:07:34.650Z,19.81
2023-05-11T07:10:01.384Z,20.07
2023-05-11T07:12:27.828Z,20.08
2023-05-11T07:14:54.312Z,20.69
2023-05-11T07:17:20.791Z,20.72
2023-05-11T07:19:47.250Z,21.33
2023-05-11T07:22:15.037Z,21.75
2023-05-11T07:24:42.286Z,21.36
2023-05-11T07:27:08.641Z,21.98
2023-05-11T07:29:35.195Z,20.70
2023-05-11T07:32:02.423Z,21.23
2023-05-11T07:34:28.957Z,21.17
2023-05-11T07:36:55.609Z,21.17
2023-05-11T07:39:22.202Z,21.01
2023-05-11T07:41:48.558Z,20.25
2023-05-11T07:44:15.571Z,20.83
2023-05-11T07:46:42.100Z,21.69
2023-05-11T07:49:17.055Z,22.67
2023-05-11T07:51:47.127Z,22.91
2023-05-11T07:54:13.755Z,22.49
2023-05-11T07:56:40.334Z,23.05
2023-05-11T07:59:06.804Z,24.10
2023-05-11T08:01:33.490Z,23.29
2023-05-11T08:04:00.365Z,22.40
2023-05-11T08:06:27.390Z,22.98
2023-05-11T08:08:53.843Z,23.27
2023-05-11T08:11:20.840Z,23.74
2023-05-11T08:13:47.448Z,23.99
2023-05-11T08:16:14.077Z,24.01
2023-05-11T08:18:40.660Z,23.59
2023-05-11T08:21:07.598Z,23.10
2023-05-11T08:23:34.197Z,24.06
2023-05-11T08:26:01.308Z,23.27
2023-05-11T08:28:27.779Z,22.63
2023-05-11T08:30:58.512Z,22.98
2023-05-11T08:33:37.582Z,23.16
2023-05-11T08:36:06.351Z,23.06
2023-05-11T08:38:33.423Z,23.15
2023-05-11T08:41:01.793Z,23.75
2023-05-11T08:43:29.204Z,24.95
2023-05-11T08:45:58.158Z,24.27
2023-05-11T08:48:24.680Z,24.15
2023-05-11T08:50:51.982Z,24.36
2023-05-11T08:53:18.817Z,24.66
2023-05-11T08:55:46.814Z,24.42
2023-05-11T08:58:15.159Z,25.00
2023-05-11T09:00:41.985Z,24.56
2023-05-11T09:03:09.127Z,23.64
2023-05-11T09:05:36.559Z,23.13
2023-05-11T09:08:04.433Z,23.01
2023-05-11T09:10:30.953Z,24.07
2023-05-11T09:12:57.468Z,23.99
2023-05-11T09:15:23.981Z,23.39
2023-05-11T09:17:50.456Z,23.32
2023-05-11T09:20:26.921Z,23.78
2023-05-11T09:22:53.824Z,23.80
2023-05-11T09:25:20.658Z,23.36
2023-05-11T09:27:48.145Z,23.68
2023-05-11T09:30:22.162Z,24.74
2023-05-11T09:32:59.893Z,24.62
2023-05-11T09:35:31.043Z,25.26
2023-05-11T09:38:06.879Z,25.49
2023-05-11T09:40:37.487Z,26.84
2023-05-11T09:43:16.433Z,26.73
2023-05-11T09:45:45.124Z,27.42
2023-05-11T09:48:21.004Z,26.62
2023-05-11T09:50:52.218Z,25.24
2023-05-11T09:53:18.838Z,25.13
2023-05-11T09:55:54.235Z,25.96
2023-05-11T09:58:20.958Z,24.71
2023-05-11T10:00:51.266Z,25.19
2023-05-11T10:03:18.676Z,24.90
2023-05-11T10:05:59.484Z,23.48
2023-05-11T10:08:30.813Z,23.94
2023-05-11T10:10:57.842Z,25.81
2023-05-11T10:13:24.722Z,25.88
2023-05-11T10:15:54.763Z,24.35
2023-05-11T10:18:21.526Z,24.54
2023-05-11T10:20:48.616Z,24.85
2023-05-11T10:23:17.631Z,25.42
2023-05-11T10:25:44.607Z,24.13
2023-05-11T10:28:11.000Z,24.78
2023-05-11T10:30:37.892Z,25.05
2023-05-11T10:33:06.797Z,25.92
2023-05-11T10:35:33.363Z,25.47
2023-05-11T10:38:00.818Z,25.36
2023-05-11T10:40:27.449Z,24.59
2023-05-11T10:43:14.967Z,24.30
2023-05-11T10:46:00.345Z,24.75
2023-05-11T10:48:42.833Z,23.73
2023-05-11T10:51:23.174Z,24.68
2023-05-11T10:54:27.592Z,25.22
2023-05-11T10:57:07.010Z,24.85
2023-05-11T10:59:48.644Z,24.15
2023-05-11T11:02:17.094Z,25.41
2023-05-11T11:04:51.837Z,25.67
2023-05-11T11:07:19.730Z,24.78
2023-05-11T11:09:56.319Z,24.43
2023-05-11T11:12:24.519Z,25.11
2023-05-11T11:14:54.984Z,24.80
2023-05-11T11:17:23.378Z,24.90
2023-05-11T11:19:49.765Z,25.11
2023-05-11T11:22:34.659Z,24.97
2023-05-11T11:25:02.286Z,24.60
2023-05-11T11:27:41.017Z,24.50
2023-05-11T11:30:23.086Z,24.29
2023-05-11T11:32:52.028Z,24.78
2023-05-11T11:35:43.527Z,24.38
2023-05-11T11:38:16.219Z,25.57
2023-05-11T11:40:51.261Z,25.29
2023-05-11T11:43:24.627Z,26.04
2023-05-11T11:45:55.925Z,24.30
2023-05-11T11:48:33.374Z,23.49
2023-05-11T11:51:08.507Z,23.08
2023-05-11T11:53:38.167Z,23.48
2023-05-11T11:56:06.296Z,24.37
2023-05-11T11:58:42.424Z,23.77
2023-05-11T12:01:13.607Z,22.24
2023-05-11T12:03:43.978Z,21.81
2023-05-11T12:06:11.348Z,21.39
2023-05-11T12:08:39.070Z,21.23
2023-05-11T12:11:06.215Z,21.33
2023-05-11T12:13:33.304Z,21.34
2023-05-11T12:16:17.482Z,21.33
2023-05-11T12:18:54.593Z,21.38
2023-05-11T12:21:27.686Z,21.14
2023-05-11T12:23:58.516Z,21.35
2023-05-11T12:26:26.294Z,21.25
2023-05-11T12:29:06.847Z,21.46
2023-05-11T12:31:37.258Z,21.53
2023-05-11T12:34:03.771Z,21.30
2023-05-11T12:36:30.455Z,21.03
2023-05-11T12:38:56.907Z,20.85
2023-05-11T12:41:23.958Z,20.73
2023-05-11T12:43:51.003Z,20.90
2023-05-11T12:46:18.316Z,20.64
2023-05-11T12:48:46.616Z,20.55
2023-05-11T12:51:13.498Z,20.56
2023-05-11T12:53:41.244Z,20.87
2023-05-11T12:56:08.608Z,21.17
2023-05-11T12:58:40.073Z,20.83
2023-05-11T13:01:09.368Z,20.73
2023-05-11T13:03:36.876Z,20.49
2023-05-11T13:06:11.869Z,20.32
2023-05-11T13:08:45.550Z,20.34
2023-05-11T13:11:23.113Z,20.27
2023-05-11T13:13:50.378Z,20.23
2023-05-11T13:16:37.102Z,20.38
2023-05-11T13:19:06.227Z,20.48
2023-05-11T13:21:33.437Z,20.22
2023-05-11T13:24:02.046Z,20.48
2023-05-11T13:26:31.938Z,20.63
2023-05-11T13:29:08.750Z,20.97
2023-05-11T13:31:48.080Z,21.31
2023-05-11T13:34:15.239Z,21.02
2023-05-11T13:36:41.970Z,21.19
2023-05-11T13:39:08.618Z,20.92
2023-05-11T13:41:35.666Z,21.87
2023-05-11T13:44:02.803Z,22.01
2023-05-11T13:46:29.381Z,21.74
2023-05-11T13:48:55.877Z,21.90
2023-05-11T13:51:22.820Z,21.85
2023-05-11T13:53:49.266Z,21.90
2023-05-11T13:56:16.673Z,22.26
2023-05-11T13:58:43.295Z,22.71
2023-05-11T14:01:09.825Z,22.89
2023-05-11T14:03:36.527Z,22.73
2023-05-11T14:06:03.462Z,22.36
2023-05-11T14:08:29.927Z,22.60
2023-05-11T14:10:56.528Z,22.72
2023-05-11T14:13:23.792Z,23.04
2023-05-11T14:15:50.216Z,23.73
2023-05-11T14:18:16.859Z,23.59
2023-05-11T14:20:43.368Z,23.30
2023-05-11T14:23:09.904Z,22.57
2023-05-11T14:25:36.804Z,22.41
2023-05-11T14:28:03.311Z,22.14
2023-05-11T14:30:29.812Z,22.54
2023-05-11T14:32:57.028Z,22.58
2023-05-11T14:35:23.548Z,22.65
2023-05-11T14:37:49.983Z,22.46
2023-05-11T14:40:16.893Z,22.57
2023-05-11T14:42:43.430Z,22.41
2023-05-11T14:45:10.555Z,22.71
2023-05-11T14:47:37.153Z,22.28
2023-05-11T14:50:04.460Z,22.39
2023-05-11T14:52:30.928Z,22.63
2023-05-11T14:54:57.443Z,22.77
2023-05-11T14:57:23.967Z,22.40
2023-05-11T14:59:59.000Z,22.20
2023-05-11T15:02:26.462Z,22.02
2023-05-11T15:04:52.972Z,22.12
2023-05-11T15:07:19.490Z,22.19
2023-05-11T15:09:45.977Z,22.18
2023-05-11T15:12:12.567Z,21.90
2023-05-11T15:14:38.982Z,21.90
2023-05-11T15:17:05.736Z,21.96
2023-05-11T15:19:32.200Z,21.75
2023-05-11T15:21:58.725Z,21.78
2023-05-11T15:24:25.241Z,21.37
2023-05-11T15:26:51.731Z,21.62
2023-05-11T15:29:19.088Z,21.74
2023-05-11T15:31:45.806Z,21.24
2023-05-11T15:34:12.354Z,21.34
2023-05-11T15:36:39.806Z,21.33
2023-05-11T15:39:06.702Z,21.55
2023-05-11T15:41:34.113Z,21.47
2023-05-11T15:44:00.541Z,21.37
2023-05-11T15:46:27.274Z,21.35
2023-05-11T15:48:54.633Z,21.45
2023-05-11T15:51:21.783Z,21.51
2023-05-11T15:53:48.186Z,21.54
2023-05-11T15:56:14.597Z,21.39
2023-05-11T15:58:41.011Z,21.33
2023-05-11T16:01:07.515Z,21.42
2023-05-11T16:03:34.133Z,21.49
2023-05-11T16:06:00.793Z,21.49
2023-05-11T16:08:27.242Z,21.47
2023-05-11T16:10:53.835Z,21.59
2023-05-11T16:13:20.360Z,21.31
2023-05-11T16:15:46.899Z,21.48
2023-05-11T16:18:14.288Z,21.41
2023-05-11T16:20:40.912Z,21.39
2023-05-11T16:23:07.568Z,21.59
2023-05-11T16:25:33.934Z,21.57
2023-05-11T16:28:00.742Z,21.58
2023-05-11T16:30:27.741Z,21.37
2023-05-11T16:32:54.444Z,21.55
2023-05-11T16:35:21.223Z,21.51
2023-05-11T16:37:48.307Z,21.23
2023-05-11T16:40:18.298Z,21.16
2023-05-11T16:42:46.771Z,21.00
2023-05-11T16:45:13.267Z,20.99
2023-05-11T16:47:39.861Z,20.82
2023-05-11T16:50:06.726Z,20.82
2023-05-11T16:52:33.833Z,20.58
2023-05-11T16:55:00.310Z,20.47
2023-05-11T16:57:26.898Z,20.45
2023-05-11T16:59:53.506Z,20.38
2023-05-11T17:02:20.078Z,20.37
2023-05-11T17:04:46.663Z,20.46
2023-05-11T17:07:14.776Z,20.40
2023-05-11T17:09:41.649Z,20.38
2023-05-11T17:12:09.846Z,20.40
2023-05-11T17:14:36.707Z,20.34
2023-05-11T17:17:07.530Z,20.33
2023-05-11T17:19:34.548Z,20.33
2023-05-11T17:22:01.265Z,20.19
2023-05-11T17:24:28.497Z,20.18
2023-05-11T17:26:55.277Z,19.96
2023-05-11T17:29:21.715Z,19.99
2023-05-11T17:31:50.317Z,19.83
2023-05-11T17:34:17.888Z,19.86
2023-05-11T17:36:44.616Z,19.83
2023-05-11T17:39:11.925Z,19.82
2023-05-11T17:41:38.815Z,19.71
2023-05-11T17:44:05.856Z,19.72
2023-05-11T17:46:32.604Z,19.67
2023-05-11T17:48:59.110Z,19.64
2023-05-11T17:51:25.866Z,19.63
2023-05-11T17:53:52.283Z,19.54
2023-05-11T17:56:19.177Z,19.48
2023-05-11T17:58:45.770Z,19.44
2023-05-11T18:01:16.591Z,19.39
2023-05-11T18:03:43.832Z,19.27
2023-05-11T18:06:10.592Z,19.27
2023-05-11T18:08:37.001Z,19.25
2023-05-11T18:11:03.864Z,19.22
2023-05-11T18:13:31.591Z,19.10
2023-05-11T18:16:01.007Z,19.10
2023-05-11T18:18:27.454Z,19.01
2023-05-11T18:20:54.127Z,19.04
2023-05-11T18:23:20.849Z,18.93
2023-05-11T18:25:48.466Z,18.89
2023-05-11T18:28:15.052Z,18.86
2023-05-11T18:30:41.639Z,18.82
2023-05-11T18:33:09.756Z,18.79
2023-05-11T18:35:38.929Z,18.74
2023-05-11T18:38:05.672Z,18.73
2023-05-11T18:40:32.172Z,18.74
2023-05-11T18:42:58.591Z,18.75
2023-05-11T18:45:25.175Z,18.65
2023-05-11T18:47:51.872Z,18.55
2023-05-11T18:50:18.439Z,18.64
2023-05-11T18:52:45.220Z,18.56
2023-05-11T18:55:11.839Z,18.55
2023-05-11T18:57:39.678Z,18.50
2023-05-11T19:00:06.761Z,18.36
2023-05-11T19:02:34.018Z,18.31
2023-05-11T19:05:01.269Z,18.21
2023-05-11T19:07:28.553Z,18.08
2023-05-11T19:09:55.262Z,18.12
2023-05-11T19:12:21.868Z,18.03
2023-05-11T19:14:48.376Z,17.99
2023-05-11T19:17:14.890Z,18.02
2023-05-11T19:19:41.978Z,17.99
2023-05-11T19:22:09.353Z,17.91
2023-05-11T19:24:36.007Z,17.77
2023-05-11T19:27:07.906Z,17.83
2023-05-11T19:29:35.442Z,17.78
2023-05-11T19:32:02.552Z,17.88
2023-05-11T19:34:29.070Z,17.92
2023-05-11T19:36:55.489Z,17.76
2023-05-11T19:39:21.923Z,17.76
2023-05-11T19:41:48.436Z,17.78
2023-05-11T19:44:14.860Z,17.67
2023-05-11T19:46:46.347Z,17.63
2023-05-11T19:49:13.751Z,17.69
2023-05-11T19:51:40.373Z,17.70
2023-05-11T19:54:06.829Z,17.62
2023-05-11T19:56:33.781Z,17.56
2023-05-11T19:59:00.460Z,17.54
2023-05-11T20:01:27.273Z,17.41
2023-05-11T20:03:53.969Z,17.26
2023-05-11T20:06:20.569Z,17.15
2023-05-11T20:08:48.811Z,17.13
2023-05-11T20:11:15.580Z,17.13
2023-05-11T20:13:43.886Z,17.05
2023-05-11T20:16:10.757Z,16.97
2023-05-11T20:18:37.431Z,16.91
2023-05-11T20:21:04.303Z,16.88
2023-05-11T20:23:30.725Z,16.90
2023-05-11T20:25:57.185Z,16.83
2023-05-11T20:28:27.111Z,16.78
2023-05-11T20:30:55.125Z,16.80
2023-05-11T20:35:53.186Z,16.63
2023-05-11T20:38:20.203Z,16.58
2023-05-11T20:40:46.656Z,16.53
2023-05-11T20:43:14.773Z,16.52
2023-05-11T20:45:41.817Z,16.54
2023-05-11T20:48:08.539Z,16.54
2023-05-11T20:50:35.032Z,16.54
2023-05-11T20:53:01.529Z,16.55
2023-05-11T20:55:28.809Z,16.52
2023-05-11T20:57:55.275Z,16.50
2023-05-11T21:00:22.014Z,16.50
2023-05-11T21:02:49.020Z,16.45
2023-05-11T21:05:15.640Z,16.47
2023-05-11T21:07:43.098Z,16.44
2023-05-11T21:10:11.504Z,16.43
2023-05-11T21:12:37.927Z,16.41
2023-05-11T21:15:04.820Z,16.44
2023-05-11T21:17:31.394Z,16.46
2023-05-11T21:19:57.847Z,16.41
2023-05-11T21:22:24.298Z,16.49
2023-05-11T21:24:50.683Z,16.42
2023-05-11T21:27:17.263Z,16.41
2023-05-11T21:29:43.829Z,16.48
2023-05-11T21:32:10.489Z,16.50
2023-05-11T21:34:37.009Z,16.43
2023-05-11T21:37:03.601Z,16.42
2023-05-11T21:39:30.005Z,16.33
2023-05-11T21:41:56.907Z,16.36
2023-05-11T21:44:23.417Z,16.46
2023-05-11T21:46:50.473Z,16.32
2023-05-11T21:49:17.015Z,16.23
2023-05-11T21:51:43.620Z,16.21
2023-05-11T21:54:10.185Z,16.17
2023-05-11T21:56:36.901Z,16.08
2023-05-11T21:59:03.534Z,16.18
2023-05-11T22:01:29.992Z,16.14
2023-05-11T22:03:56.756Z,16.19
2023-05-11T22:06:23.335Z,16.02
2023-05-11T22:08:49.698Z,16.01
2023-05-11T22:11:16.129Z,15.93
2023-05-11T22:13:43.030Z,15.90
2023-05-11T22:16:09.432Z,15.84
2023-05-11T22:18:36.009Z,15.82
2023-05-11T22:21:02.747Z,15.78
2023-05-11T22:23:29.258Z,15.70
2023-05-11T22:25:55.659Z,15.71
2023-05-11T22:28:22.239Z,15.74
2023-05-11T22:30:48.641Z,15.70
2023-05-11T22:33:15.030Z,15.62
2023-05-11T22:35:42.436Z,15.65
2023-05-11T22:38:08.896Z,15.65
2023-05-11T22:40:35.348Z,15.57
2023-05-11T22:43:01.841Z,15.54
2023-05-11T22:45:28.261Z,15.48
2023-05-11T22:47:54.728Z,15.43
2023-05-11T22:50:21.451Z,15.42
2023-05-11T22:52:48.143Z,15.43
2023-05-11T22:55:14.691Z,15.33
2023-05-11T22:57:41.556Z,15.41
2023-05-11T23:00:11.645Z,15.33
2023-05-11T23:02:38.357Z,15.31
2023-05-11T23:05:05.361Z,15.38
2023-05-11T23:07:31.803Z,15.37
2023-05-11T23:09:58.302Z,15.28
2023-05-11T23:12:24.788Z,15.23
2023-05-11T23:14:52.416Z,15.25
2023-05-11T23:17:22.243Z,15.17
2023-05-11T23:19:49.470Z,15.12
2023-05-11T23:22:16.007Z,15.16
2023-05-11T23:24:42.761Z,15.01
2023-05-11T23:27:09.828Z,14.74
2023-05-11T23:29:37.259Z,14.61
2023-05-11T23:32:04.239Z,14.64
2023-05-11T23:34:30.658Z,14.67
2023-05-11T23:36:57.170Z,14.72
2023-05-11T23:39:24.120Z,14.78
2023-05-11T23:41:50.872Z,14.74
2023-05-11T23:44:17.924Z,14.74
2023-05-11T23:46:44.844Z,14.77
2023-05-11T23:49:11.370Z,14.71
2023-05-11T23:51:37.806Z,14.70
2023-05-11T23:54:04.425Z,14.59
2023-05-11T23:56:30.930Z,14.52
2023-05-11T23:58:57.428Z,14.49
